La Crescent, Minnesota
Current Conditions -  °F | °C
As of 12:53 AM on Monday 24 Nov 2014 (Local Time) from KLSE Reporting Station
Light Rain Light Rain  
Wind Chill: 31°   Ceiling: 700
Heat Index: 39°   Visibility: 3mi
Dew Point: 39°   Wind: 15mph
Humidity: 100%   Direction: 310°NW
Pressure: 29.17"   Gusts: NA
Location:  43.83°N, 91.3°W
Report Text: KLSE 240653Z AUTO 31013KT 3SM -RA BR OVC007 04/04 A2917 RMK AO2 CIG 006V011 SLP883 P0000 T00390039
Loading
Personal Weather Stations






























Interactive Weather Map New forecast layout! Learn more

10-Day Weather Forecast

Advertisements
Track Severe Weather on mobile